Time;durP1;ratioP1;P1;durP2;ratioP2;P2;SDS_P1;SDS_P2;PMS_P1;PMS_P2;Temp;Humidity;BMP_temperature;BMP_pressure;BME280_temperature;BME280_humidity;BME280_pressure;Samples;Min_cycle;Max_cycle;Signal;HPM_P1;HPM_P2
2022/10/09 00:00:39;;;;;;;34.38;18.63;;;;;;;13.33;100.00;92976.13;5060141;28;20033;-78
2022/10/09 00:03:05;;;;;;;35.38;18.20;;;;;;;13.32;100.00;92974.56;5058888;28;20052;-79
2022/10/09 00:05:30;;;;;;;35.53;19.83;;;;;;;13.33;100.00;92984.78;5019555;28;20056;-79
2022/10/09 00:07:56;;;;;;;34.60;20.15;;;;;;;13.33;100.00;92991.91;5041849;28;20560;-78
2022/10/09 00:10:22;;;;;;;34.80;19.98;;;;;;;13.34;100.00;92990.81;5041823;28;20037;-78
2022/10/09 00:12:47;;;;;;;33.65;18.85;;;;;;;13.30;100.00;92987.97;5054961;28;20034;-78
2022/10/09 00:15:13;;;;;;;38.05;20.00;;;;;;;13.29;100.00;92986.44;5057021;28;20040;-79
2022/10/09 00:17:39;;;;;;;36.63;20.70;;;;;;;13.31;100.00;92999.28;5028029;28;20112;-80
2022/10/09 00:20:05;;;;;;;41.05;20.55;;;;;;;13.33;100.00;92997.16;5059378;28;20067;-79
2022/10/09 00:22:32;;;;;;;35.08;18.90;;;;;;;13.32;100.00;92995.59;5042849;28;20043;-80
2022/10/09 00:24:57;;;;;;;39.15;21.48;;;;;;;13.30;100.00;92993.22;5027750;28;20025;-80
2022/10/09 00:27:23;;;;;;;42.42;22.17;;;;;;;13.30;100.00;92995.09;5041625;28;20071;-80
2022/10/09 00:29:50;;;;;;;38.20;21.27;;;;;;;13.27;100.00;92993.03;5042455;28;20033;-79
2022/10/09 00:32:16;;;;;;;38.13;19.88;;;;;;;13.23;100.00;92994.66;5023371;28;20046;-80
2022/10/09 00:34:42;;;;;;;40.30;20.67;;;;;;;13.24;100.00;92988.31;5024497;28;20041;-79
2022/10/09 00:37:07;;;;;;;34.33;19.88;;;;;;;13.24;100.00;92989.13;5060958;28;20112;-78
2022/10/09 00:39:33;;;;;;;39.38;21.20;;;;;;;13.24;100.00;92996.22;5051560;28;20280;-79
2022/10/09 00:42:00;;;;;;;38.72;22.65;;;;;;;13.21;100.00;92988.91;5019274;28;20101;-79
2022/10/09 00:44:53;;;;;;;42.00;22.25;;;;;;;13.17;100.00;92995.81;5069431;28;20044;-79
2022/10/09 00:47:40;;;;;;;44.90;22.90;;;;;;;13.15;100.00;92990.88;5069412;28;20009;-78
2022/10/09 00:50:43;;;;;;;40.13;22.10;;;;;;;13.17;100.00;92980.03;5048042;28;20029;-79
2022/10/09 00:53:12;;;;;;;41.00;21.75;;;;;;;13.10;100.00;92967.28;5044210;28;20033;-79
2022/10/09 00:55:38;;;;;;;51.67;25.38;;;;;;;13.17;100.00;92987.94;5069740;28;20029;-79
2022/10/09 00:58:05;;;;;;;49.72;24.73;;;;;;;13.12;100.00;92979.06;5054446;28;20446;-79
2022/10/09 01:00:30;;;;;;;49.80;24.90;;;;;;;13.12;100.00;92981.69;5019750;28;20580;-79
2022/10/09 01:02:56;;;;;;;45.28;22.80;;;;;;;13.09;100.00;92977.00;5033018;28;20067;-80
2022/10/09 01:05:32;;;;;;;47.83;23.92;;;;;;;13.10;100.00;92983.84;5043825;28;20052;-79
2022/10/09 01:08:08;;;;;;;125.63;29.23;;;;;;;13.16;100.00;92981.13;5030715;28;20031;-79
2022/10/09 01:11:03;;;;;;;216.25;29.55;;;;;;;13.15;100.00;92969.03;5034434;28;20040;-79
2022/10/09 01:13:41;;;;;;;79.72;29.13;;;;;;;13.13;100.00;92983.25;5044582;28;20380;-78
2022/10/09 01:16:34;;;;;;;61.03;28.70;;;;;;;13.08;100.00;92980.72;5059982;28;20120;-79
2022/10/09 01:19:10;;;;;;;51.97;26.00;;;;;;;13.11;100.00;92976.75;5065813;28;20095;-79
2022/10/09 01:21:51;;;;;;;58.35;28.33;;;;;;;13.07;100.00;92978.38;5042191;28;20215;-78
2022/10/09 01:24:29;;;;;;;53.97;27.58;;;;;;;13.01;100.00;92977.66;5052193;28;20033;-78
2022/10/09 01:27:04;;;;;;;60.35;29.45;;;;;;;13.00;100.00;92978.75;5041298;28;20085;-79
2022/10/09 01:29:35;;;;;;;57.83;28.45;;;;;;;13.03;100.00;92974.75;5045234;28;20103;-78
2022/10/09 01:32:02;;;;;;;60.45;28.98;;;;;;;13.05;100.00;92970.00;5038904;28;20044;-79
2022/10/09 01:34:30;;;;;;;57.08;27.33;;;;;;;13.05;100.00;92970.00;5043870;28;20033;-79
2022/10/09 01:36:57;;;;;;;61.22;29.25;;;;;;;13.04;100.00;92969.22;5055500;28;20033;-79
2022/10/09 01:39:24;;;;;;;55.22;28.42;;;;;;;13.09;100.00;92968.34;5022129;28;20049;-79
2022/10/09 01:41:52;;;;;;;64.45;30.55;;;;;;;13.09;100.00;92965.72;5024976;28;20472;-79
2022/10/09 01:44:27;;;;;;;68.90;29.75;;;;;;;13.09;100.00;92963.88;5028805;28;20112;-78
2022/10/09 01:46:53;;;;;;;63.08;28.17;;;;;;;13.10;100.00;92968.06;5062036;28;20059;-78
2022/10/09 01:49:45;;;;;;;58.58;28.30;;;;;;;13.11;100.00;92963.59;5046483;28;20052;-79
2022/10/09 01:52:23;;;;;;;59.20;28.77;;;;;;;13.10;100.00;92965.44;5046690;28;20552;-79
2022/10/09 01:55:01;;;;;;;54.05;26.73;;;;;;;13.11;100.00;92964.38;5043496;28;20093;-79
2022/10/09 01:57:33;;;;;;;60.08;26.95;;;;;;;13.10;100.00;92962.81;5056495;28;20104;-79
2022/10/09 02:00:02;;;;;;;497.98;28.35;;;;;;;13.11;100.00;92964.38;5063571;28;20128;-79
2022/10/09 02:02:39;;;;;;;193.90;27.30;;;;;;;13.06;100.00;92961.03;5053611;28;20036;-77
2022/10/09 02:05:06;;;;;;;57.72;26.48;;;;;;;13.04;100.00;92956.09;5033641;28;20099;-78
2022/10/09 02:07:33;;;;;;;59.38;27.52;;;;;;;12.97;100.00;92955.69;5033854;28;20110;-78
2022/10/09 02:10:01;;;;;;;64.50;29.05;;;;;;;12.92;100.00;92955.75;5033341;28;20458;-78
2022/10/09 02:12:31;;;;;;;71.15;29.60;;;;;;;12.88;100.00;92960.06;5034128;28;20082;-78
2022/10/09 02:14:56;;;;;;;61.63;29.70;;;;;;;12.88;100.00;92950.31;5017378;28;20044;-78
2022/10/09 02:17:28;;;;;;;60.92;28.65;;;;;;;12.93;100.00;92957.31;5033574;28;20482;-78
2022/10/09 02:19:57;;;;;;;59.22;27.30;;;;;;;12.94;100.00;92956.25;5014296;28;20050;-79
2022/10/09 02:22:30;;;;;;;64.63;28.95;;;;;;;12.92;100.00;92950.50;5033612;28;20052;-80
2022/10/09 02:25:03;;;;;;;63.90;28.27;;;;;;;12.96;100.00;92956.75;5014165;28;20048;-78
2022/10/09 02:27:29;;;;;;;66.28;28.45;;;;;;;12.97;100.00;92947.81;4984550;28;20034;-79
2022/10/09 02:29:57;;;;;;;68.95;28.95;;;;;;;12.97;100.00;92947.00;5028478;28;20060;-78
2022/10/09 02:32:22;;;;;;;67.45;29.80;;;;;;;12.96;100.00;92945.47;4995968;28;20065;-79
2022/10/09 02:34:48;;;;;;;61.38;28.15;;;;;;;12.96;100.00;92946.22;5000841;28;20493;-80
2022/10/09 02:37:13;;;;;;;63.70;28.20;;;;;;;12.98;100.00;92959.84;4996320;28;20117;-79
2022/10/09 02:39:40;;;;;;;57.88;27.42;;;;;;;13.00;100.00;92957.72;5023579;28;20108;-79
2022/10/09 02:42:06;;;;;;;59.72;28.42;;;;;;;13.02;100.00;92952.19;5040350;28;20041;-79
2022/10/09 02:44:32;;;;;;;63.95;28.33;;;;;;;13.04;100.00;92950.81;5006105;28;20064;-79
2022/10/09 02:46:57;;;;;;;71.05;29.25;;;;;;;13.06;100.00;92951.31;5022198;28;20072;-79
2022/10/09 02:49:23;;;;;;;73.30;31.40;;;;;;;13.04;100.00;92948.19;5037856;28;20040;-78
2022/10/09 02:51:48;;;;;;;72.38;31.60;;;;;;;13.04;100.00;92956.09;5039830;28;20037;-79
2022/10/09 02:54:14;;;;;;;77.93;31.92;;;;;;;13.04;100.00;92947.44;5037891;28;20124;-79
2022/10/09 02:56:40;;;;;;;66.78;30.60;;;;;;;13.03;100.00;92946.63;5032006;28;20040;-79
2022/10/09 02:59:06;;;;;;;71.60;30.20;;;;;;;13.03;100.00;92940.59;5015010;28;20102;-80
2022/10/09 03:01:31;;;;;;;67.75;29.02;;;;;;;13.00;100.00;92944.59;5014495;28;20045;-77
2022/10/09 03:03:57;;;;;;;70.70;30.48;;;;;;;13.01;100.00;92948.00;5033574;28;20079;-80
2022/10/09 03:06:24;;;;;;;74.22;31.48;;;;;;;12.97;100.00;92941.75;5021733;28;20041;-79
2022/10/09 03:08:51;;;;;;;85.78;36.45;;;;;;;13.00;100.00;92947.22;5022248;28;20053;-79
2022/10/09 03:11:19;;;;;;;91.57;37.10;;;;;;;13.00;100.00;92947.22;5021578;28;20025;-78
2022/10/09 03:13:45;;;;;;;92.40;38.33;;;;;;;12.99;100.00;92950.13;5022053;28;20061;-78
2022/10/09 03:16:14;;;;;;;98.22;37.42;;;;;;;12.97;100.00;92947.00;5013791;28;20030;-78
2022/10/09 03:18:39;;;;;;;102.03;40.08;;;;;;;12.96;100.00;92940.97;5041833;28;20113;-78
2022/10/09 03:21:11;;;;;;;103.50;37.92;;;;;;;12.94;100.00;92945.75;5043325;28;20045;-78
2022/10/09 03:23:37;;;;;;;101.20;39.80;;;;;;;12.90;100.00;92948.19;5062096;28;20475;-78
2022/10/09 03:26:09;;;;;;;106.95;41.72;;;;;;;12.88;100.00;92941.66;5061360;28;20025;-78
2022/10/09 03:28:36;;;;;;;101.93;42.08;;;;;;;12.85;100.00;92944.84;5044186;28;20059;-78
2022/10/09 03:31:02;;;;;;;120.07;41.17;;;;;;;12.81;100.00;92943.84;5046896;28;20037;-79
2022/10/09 03:33:28;;;;;;;105.63;38.63;;;;;;;12.85;100.00;92948.25;5032082;28;20056;-77
2022/10/09 03:35:53;;;;;;;100.65;38.55;;;;;;;12.83;100.00;92946.97;5049964;28;20038;-78
2022/10/09 03:38:19;;;;;;;100.15;37.75;;;;;;;12.83;100.00;92949.59;5033720;28;20033;-79
2022/10/09 03:40:45;;;;;;;98.53;38.20;;;;;;;12.80;100.00;92953.59;5066825;28;20523;-79
2022/10/09 03:43:10;;;;;;;98.97;36.78;;;;;;;12.78;100.00;92944.44;5029303;28;20045;-79
2022/10/09 03:45:41;;;;;;;94.22;37.03;;;;;;;12.75;100.00;92947.66;5047569;28;20380;-79
2022/10/09 03:48:09;;;;;;;98.43;38.00;;;;;;;12.77;100.00;92953.41;5047986;28;20040;-79
2022/10/09 03:50:37;;;;;;;93.55;37.42;;;;;;;12.76;100.00;92951.81;5029840;28;20354;-79
2022/10/09 03:53:03;;;;;;;92.25;38.08;;;;;;;12.73;100.00;92944.53;5044181;28;20049;-78
2022/10/09 03:55:28;;;;;;;97.72;37.13;;;;;;;12.72;100.00;92946.34;5064040;28;20029;-79
2022/10/09 03:57:54;;;;;;;92.18;35.03;;;;;;;12.71;100.00;92945.59;5060771;28;20151;-79
2022/10/09 04:00:20;;;;;;;89.75;36.13;;;;;;;12.69;100.00;92958.22;5063259;28;20191;-79
2022/10/09 04:02:45;;;;;;;91.80;36.35;;;;;;;12.65;100.00;92946.75;5045902;28;20096;-79
2022/10/09 04:05:11;;;;;;;95.28;36.72;;;;;;;12.59;100.00;92947.13;5029995;28;20183;-79
2022/10/09 04:07:36;;;;;;;100.00;37.58;;;;;;;12.60;100.00;92952.06;5047464;28;20099;-78
2022/10/09 04:10:03;;;;;;;98.57;37.78;;;;;;;12.62;100.00;92947.31;5026265;28;20061;-78
2022/10/09 04:12:29;;;;;;;92.75;36.08;;;;;;;12.62;100.00;92946.53;5061720;28;20029;-79
2022/10/09 04:14:55;;;;;;;85.25;35.33;;;;;;;12.61;100.00;92947.59;5026841;28;20353;-79
2022/10/09 04:17:20;;;;;;;76.97;32.33;;;;;;;12.54;100.00;92940.09;5022598;28;20412;-79
2022/10/09 04:19:46;;;;;;;90.25;32.03;;;;;;;12.53;100.00;92949.03;5025056;28;20050;-78
2022/10/09 04:22:11;;;;;;;74.80;31.42;;;;;;;12.49;100.00;92946.19;5026223;28;20053;-79
2022/10/09 04:24:37;;;;;;;77.10;31.35;;;;;;;12.52;100.00;92947.47;5025784;28;20043;-79
2022/10/09 04:27:03;;;;;;;67.85;29.38;;;;;;;12.47;100.00;92943.09;5007965;28;20089;-79
2022/10/09 04:29:28;;;;;;;74.55;31.50;;;;;;;12.45;100.00;92947.03;5042754;28;20025;-79
2022/10/09 04:31:54;;;;;;;84.90;32.67;;;;;;;12.44;100.00;92943.63;5023756;28;20041;-79
2022/10/09 04:34:19;;;;;;;91.35;34.63;;;;;;;12.46;100.00;92948.63;5023941;28;20065;-79
2022/10/09 04:36:45;;;;;;;84.90;34.65;;;;;;;12.45;100.00;92947.03;5038227;28;20532;-79
2022/10/09 04:39:11;;;;;;;86.95;35.33;;;;;;;12.49;100.00;92948.03;5036070;28;20473;-79
2022/10/09 04:41:37;;;;;;;83.15;33.80;;;;;;;12.45;100.00;92947.03;5041218;28;20029;-79
2022/10/09 04:44:02;;;;;;;79.85;32.63;;;;;;;12.41;100.00;92952.09;5041619;28;20398;-79
2022/10/09 04:46:28;;;;;;;82.80;34.30;;;;;;;12.39;100.00;92958.69;5022984;28;20048;-78
2022/10/09 04:48:54;;;;;;;81.80;33.50;;;;;;;12.38;100.00;92957.91;5025790;28;20593;-79
2022/10/09 04:51:19;;;;;;;90.40;34.72;;;;;;;12.38;100.00;92957.13;5045063;28;20037;-79
2022/10/09 04:53:45;;;;;;;83.80;33.30;;;;;;;12.38;100.00;92957.91;5023356;28;20078;-79
2022/10/09 04:56:15;;;;;;;87.63;34.38;;;;;;;12.38;100.00;92959.75;5022640;28;20032;-79
2022/10/09 04:58:41;;;;;;;96.00;35.40;;;;;;;12.36;100.00;92954.00;5041600;28;20033;-79
2022/10/09 05:01:10;;;;;;;90.95;35.45;;;;;;;12.39;100.00;92958.69;5008190;28;20116;-79
2022/10/09 05:03:36;;;;;;;92.90;34.55;;;;;;;12.42;100.00;92958.13;5021192;28;20026;-79
2022/10/09 05:06:08;;;;;;;96.55;35.50;;;;;;;12.38;100.00;92959.75;5038099;28;20041;-78
2022/10/09 05:08:34;;;;;;;93.82;35.75;;;;;;;12.36;100.00;92959.25;5037257;28;20040;-79
2022/10/09 05:11:00;;;;;;;98.68;35.08;;;;;;;12.32;100.00;92951.19;5041090;28;20081;-79
2022/10/09 05:13:31;;;;;;;84.78;34.47;;;;;;;12.38;100.00;92963.16;5056256;28;20082;-79
2022/10/09 05:16:02;;;;;;;84.40;34.92;;;;;;;12.37;100.00;92963.47;5049756;28;20037;-79
2022/10/09 05:18:28;;;;;;;91.35;34.83;;;;;;;12.36;100.00;92961.88;5022539;28;20087;-79
2022/10/09 05:20:53;;;;;;;89.57;35.53;;;;;;;12.35;100.00;92960.34;5021955;28;20475;-78
2022/10/09 05:23:19;;;;;;;87.22;35.33;;;;;;;12.34;100.00;92967.44;5039836;28;20037;-79
2022/10/09 05:25:57;;;;;;;92.20;35.78;;;;;;;12.34;100.00;92971.88;5042810;28;20052;-79
2022/10/09 05:28:23;;;;;;;91.35;35.97;;;;;;;12.33;100.00;92965.84;5040986;28;20033;-79
2022/10/09 05:30:49;;;;;;;94.13;35.70;;;;;;;12.29;100.00;92965.66;5027659;28;20041;-79
2022/10/09 05:33:14;;;;;;;92.00;34.13;;;;;;;12.28;100.00;92965.94;5029858;28;20037;-79
2022/10/09 05:35:40;;;;;;;94.68;36.78;;;;;;;12.26;100.00;92960.97;5044773;28;20068;-79
2022/10/09 05:38:06;;;;;;;87.82;34.38;;;;;;;12.26;100.00;92966.22;5041989;28;20048;-79
2022/10/09 05:40:31;;;;;;;88.53;34.75;;;;;;;12.28;100.00;92971.19;5048472;28;20041;-80
2022/10/09 05:42:57;;;;;;;91.72;35.22;;;;;;;12.25;100.00;92969.91;5039664;28;20037;-78
2022/10/09 05:45:22;;;;;;;84.50;34.15;;;;;;;12.24;100.00;92967.56;5036076;28;20479;-80
2022/10/09 05:47:48;;;;;;;83.90;31.95;;;;;;;12.23;100.00;92969.41;5020331;28;20048;-79
2022/10/09 05:50:14;;;;;;;87.00;33.95;;;;;;;12.21;100.00;92968.91;5015699;28;20046;-78
2022/10/09 05:52:39;;;;;;;88.57;34.17;;;;;;;12.18;100.00;92969.50;5017211;28;20033;-78
2022/10/09 05:55:06;;;;;;;81.55;33.67;;;;;;;12.17;100.00;92969.78;5031225;28;20037;-79
2022/10/09 05:57:32;;;;;;;84.47;33.45;;;;;;;12.13;100.00;92961.66;5032060;28;20546;-79
2022/10/09 05:59:57;;;;;;;93.18;35.03;;;;;;;12.10;100.00;92967.50;5032565;28;20029;-79
2022/10/09 06:02:23;;;;;;;82.00;32.28;;;;;;;12.09;100.00;92973.78;5017824;28;20124;-76
2022/10/09 06:04:48;;;;;;;84.25;32.38;;;;;;;12.11;100.00;92974.28;5019982;28;20062;-75
2022/10/09 06:07:14;;;;;;;85.60;33.63;;;;;;;12.15;100.00;92975.28;5028573;28;20048;-76
2022/10/09 06:09:40;;;;;;;84.30;31.90;;;;;;;12.17;100.00;92983.66;5028466;28;20064;-76
2022/10/09 06:12:05;;;;;;;86.40;32.30;;;;;;;12.18;100.00;92987.88;5030155;28;20045;-77
2022/10/09 06:14:31;;;;;;;85.93;31.30;;;;;;;12.15;100.00;92993.66;5027025;28;20149;-77
2022/10/09 06:16:57;;;;;;;86.85;33.72;;;;;;;12.13;100.00;92995.78;5027073;28;20037;-75
2022/10/09 06:19:22;;;;;;;92.82;33.67;;;;;;;12.11;100.00;92999.75;5028426;28;20498;-76
2022/10/09 06:21:49;;;;;;;91.72;33.88;;;;;;;12.12;100.00;93014.47;5039610;28;20038;-76
2022/10/09 06:24:23;;;;;;;87.07;32.92;;;;;;;12.10;100.00;93009.47;5051174;28;20108;-76
2022/10/09 06:26:49;;;;;;;86.10;32.45;;;;;;;12.08;100.00;93014.22;5046099;28;20041;-77
2022/10/09 06:29:15;;;;;;;86.90;33.85;;;;;;;12.11;100.00;93016.28;4992663;28;20048;-75
2022/10/09 06:31:40;;;;;;;87.63;32.80;;;;;;;12.11;100.00;93013.66;5028377;28;20473;-76
2022/10/09 06:34:08;;;;;;;80.57;32.20;;;;;;;12.12;100.00;93012.59;5060299;28;20044;-77
2022/10/09 06:36:34;;;;;;;96.25;35.65;;;;;;;12.11;100.00;93016.28;5052468;28;20501;-75
2022/10/09 06:39:01;;;;;;;93.75;35.97;;;;;;;12.12;100.00;93012.59;5043317;28;20032;-76
2022/10/09 06:41:28;;;;;;;89.85;35.85;;;;;;;12.13;100.00;93019.41;5048509;28;20563;-76
2022/10/09 06:43:59;;;;;;;97.63;35.17;;;;;;;12.16;100.00;93023.31;5012400;28;20379;-76
2022/10/09 06:46:29;;;;;;;96.97;36.22;;;;;;;12.07;100.00;93017.94;5053673;28;20028;-77
2022/10/09 06:48:54;;;;;;;102.22;36.97;;;;;;;12.07;100.00;93023.94;5061330;28;20032;-77
2022/10/09 06:51:22;;;;;;;103.78;37.45;;;;;;;12.08;100.00;93022.09;5026453;28;20083;-77
2022/10/09 06:53:50;;;;;;;98.35;34.45;;;;;;;12.06;100.00;93030.25;5025415;28;20091;-76
2022/10/09 06:56:17;;;;;;;96.15;34.78;;;;;;;12.04;100.00;93032.38;5027141;28;20036;-77
2022/10/09 06:58:44;;;;;;;92.28;33.72;;;;;;;12.01;100.00;93027.69;5023557;28;20112;-77
2022/10/09 07:01:13;;;;;;;98.70;37.10;;;;;;;12.03;100.00;93035.28;5025900;28;20486;-76
2022/10/09 07:03:40;;;;;;;100.75;38.20;;;;;;;12.01;100.00;93038.19;5043611;28;20033;-77
2022/10/09 07:06:18;;;;;;;126.85;43.95;;;;;;;12.01;100.00;93038.19;5052860;28;20028;-77
2022/10/09 07:08:46;;;;;;;101.82;37.63;;;;;;;12.02;100.00;93038.97;5068991;28;20111;-78
2022/10/09 07:11:13;;;;;;;95.95;37.45;;;;;;;12.02;100.00;93037.16;5047473;28;20506;-76
2022/10/09 07:13:41;;;;;;;112.60;42.55;;;;;;;12.04;100.00;93042.09;5014966;28;20025;-77
2022/10/09 07:16:09;;;;;;;243.50;85.38;;;;;;;12.04;100.00;93036.84;5028290;28;20029;-76
2022/10/09 07:18:34;;;;;;;353.50;126.38;;;;;;;12.02;100.00;93038.97;5032419;28;20052;-76
2022/10/09 07:21:06;;;;;;;168.98;60.95;;;;;;;12.03;100.00;93040.53;5033131;28;20033;-76
2022/10/09 07:23:33;;;;;;;253.30;97.88;;;;;;;12.06;100.00;93040.75;5033464;28;20037;-76
2022/10/09 07:26:00;;;;;;;235.15;90.30;;;;;;;12.10;100.00;93040.97;4997859;28;20072;-77
2022/10/09 07:28:28;;;;;;;71.18;30.75;;;;;;;12.14;100.00;93035.97;5010633;28;20041;-76
2022/10/09 07:30:54;;;;;;;89.03;36.88;;;;;;;12.41;100.00;93045.84;5037525;28;20499;-76
2022/10/09 07:33:19;;;;;;;73.55;31.60;;;;;;;12.47;100.00;93055.19;5030614;28;20032;-76
2022/10/09 07:36:01;;;;;;;68.78;27.67;;;;;;;12.57;100.00;93067.44;5001071;28;20095;-76
2022/10/09 07:38:27;;;;;;;100.00;34.13;;;;;;;12.39;100.00;93068.97;5032675;28;20132;-77
2022/10/09 07:40:53;;;;;;;860.67;36.70;;;;;;;12.23;100.00;93077.03;5022597;28;20471;-76
2022/10/09 07:43:20;;;;;;;1885.90;61.25;;;;;;;12.07;100.00;93083.53;5010260;28;20506;-76
2022/10/09 07:45:46;;;;;;;391.67;32.03;;;;;;;11.93;100.00;93087.88;5003843;28;20046;-77
2022/10/09 07:48:12;;;;;;;382.23;26.40;;;;;;;11.91;100.00;93103.91;5035267;28;20033;-76
2022/10/09 07:50:37;;;;;;;53.00;23.13;;;;;;;12.06;100.00;93105.56;5051395;28;20029;-75
2022/10/09 07:53:03;;;;;;;65.18;23.88;;;;;;;11.95;100.00;93112.00;5029589;28;20320;-75
2022/10/09 07:55:29;;;;;;;67.70;26.95;;;;;;;11.97;100.00;93120.38;5034491;28;20124;-77
2022/10/09 07:57:54;;;;;;;68.32;25.48;;;;;;;11.90;100.00;93119.91;5015851;28;20042;-76
2022/10/09 08:00:20;;;;;;;59.15;24.25;;;;;;;11.88;100.00;93118.34;5012362;28;20079;-76
2022/10/09 08:02:45;;;;;;;60.55;24.17;;;;;;;11.83;100.00;93126.25;5012429;28;20025;-74
2022/10/09 08:05:11;;;;;;;50.50;21.38;;;;;;;11.86;100.00;93130.91;5011779;28;20038;-76
2022/10/09 08:07:36;;;;;;;55.30;22.95;;;;;;;11.85;100.00;93132.00;5004190;28;20033;-79
2022/10/09 08:10:03;;;;;;;53.67;23.02;;;;;;;11.85;100.00;93123.34;5012975;28;20045;-78
2022/10/09 08:12:29;;;;;;;51.50;22.42;;;;;;;11.88;100.00;93134.09;5004360;28;20037;-75
2022/10/09 08:14:54;;;;;;;41.47;19.48;;;;;;;11.93;100.00;93129.84;5017954;28;20046;-75
2022/10/09 08:17:20;;;;;;;44.60;17.98;;;;;;;11.96;100.00;93140.59;5016350;28;20056;-77
2022/10/09 08:19:45;;;;;;;48.28;20.45;;;;;;;11.99;100.00;93144.50;4990877;28;20510;-78
2022/10/09 08:22:11;;;;;;;49.10;20.33;;;;;;;12.01;100.00;93150.25;5027554;28;20556;-77
2022/10/09 08:24:37;;;;;;;49.03;19.73;;;;;;;12.01;100.00;93148.41;5041051;28;20036;-78
2022/10/09 08:27:03;;;;;;;45.25;19.50;;;;;;;12.02;100.00;93149.16;5029685;28;20449;-77
2022/10/09 08:29:29;;;;;;;58.13;24.58;;;;;;;11.99;100.00;93153.13;5040345;28;20033;-78
2022/10/09 08:31:54;;;;;;;76.07;28.95;;;;;;;11.98;100.00;93148.97;5046959;28;20040;-77
2022/10/09 08:34:20;;;;;;;89.20;36.03;;;;;;;11.98;100.00;93158.66;5055219;28;20045;-78
2022/10/09 08:36:45;;;;;;;91.22;34.20;;;;;;;11.96;100.00;93150.31;5032196;28;20102;-77
2022/10/09 08:39:12;;;;;;;103.40;38.60;;;;;;;11.93;100.00;93148.22;5029100;28;20044;-77
2022/10/09 08:41:45;;;;;;;115.10;46.47;;;;;;;11.94;100.00;93147.16;5033368;28;20318;-77
2022/10/09 08:44:21;;;;;;;102.30;39.22;;;;;;;11.92;100.00;93144.03;5031284;28;20395;-77
2022/10/09 08:47:11;;;;;;;95.85;36.22;;;;;;;11.93;100.00;93151.63;5052356;28;20029;-76
2022/10/09 08:49:50;;;;;;;109.60;37.97;;;;;;;11.91;100.00;93150.31;5031270;28;20478;-76
2022/10/09 08:52:20;;;;;;;117.13;42.92;;;;;;;11.90;100.00;93148.78;5024004;28;20538;-77
2022/10/09 08:54:45;;;;;;;103.03;38.90;;;;;;;11.91;100.00;93155.56;5049849;28;20033;-77
2022/10/09 08:57:16;;;;;;;98.22;37.42;;;;;;;11.90;100.00;93154.81;5050007;28;20038;-78
2022/10/09 08:59:43;;;;;;;95.70;35.22;;;;;;;11.86;100.00;93148.50;5032809;28;20045;-77
2022/10/09 09:02:11;;;;;;;99.78;36.15;;;;;;;11.88;100.00;93152.44;5047542;28;20033;-78
2022/10/09 09:04:44;;;;;;;94.75;37.45;;;;;;;11.87;100.00;93147.47;5045300;28;20033;-78
2022/10/09 09:07:23;;;;;;;87.50;37.45;;;;;;;11.89;100.00;93145.38;5045618;28;20509;-78
2022/10/09 09:10:28;;;;;;;80.47;29.98;;;;;;;11.90;100.00;93146.16;5026193;28;20025;-78
2022/10/09 09:13:01;;;;;;;76.80;30.20;;;;;;;11.90;100.00;93138.28;5049458;28;20078;-76
2022/10/09 09:15:48;;;;;;;58.30;24.70;;;;;;;11.93;100.00;93142.97;5045096;28;20479;-76
2022/10/09 09:18:36;;;;;;;56.47;23.70;;;;;;;11.92;100.00;93141.41;5045757;28;20036;-76
2022/10/09 09:21:14;;;;;;;62.17;25.50;;;;;;;11.94;100.00;93142.69;5032468;28;20098;-76
2022/10/09 09:23:46;;;;;;;57.60;27.02;;;;;;;12.00;100.00;93143.41;5043647;28;20037;-76
2022/10/09 09:26:16;;;;;;;54.47;23.77;;;;;;;12.00;100.00;93146.03;5044855;28;20032;-76
2022/10/09 09:28:43;;;;;;;48.75;20.88;;;;;;;12.08;100.00;93145.44;5032457;28;20032;-76
2022/10/09 09:31:14;;;;;;;712.42;25.13;;;;;;;12.00;100.00;93152.09;5049847;28;20036;-77
2022/10/09 09:33:50;;;;;;;524.70;21.53;;;;;;;12.00;100.00;93154.72;5049402;28;20037;-75
2022/10/09 09:36:22;;;;;;;55.95;11.68;;;;;;;11.95;100.00;93159.22;5046807;28;20706;-75
2022/10/09 09:38:49;;;;;;;;;;;;;;;11.95;100.00;93148.72;5053297;28;20651;-76
2022/10/09 09:41:14;;;;;;;56.85;21.67;;;;;;;11.95;100.00;93154.75;5062106;28;19958;-77
2022/10/09 09:43:41;;;;;;;40.88;16.73;;;;;;;11.95;100.00;93153.97;5040981;28;20526;-76
2022/10/09 09:46:19;;;;;;;34.75;15.63;;;;;;;11.95;100.00;93156.59;5048683;28;20041;-77
2022/10/09 09:48:47;;;;;;;25.88;12.65;;;;;;;11.99;100.00;93162.84;5045484;28;20029;-76
2022/10/09 09:51:28;;;;;;;20.42;10.10;;;;;;;11.99;100.00;93168.09;5047888;28;20032;-77
2022/10/09 09:53:59;;;;;;;26.17;9.10;;;;;;;12.02;100.00;93164.91;5038273;28;20106;-75
2022/10/09 09:56:38;;;;;;;19.00;8.10;;;;;;;12.02;100.00;93164.91;5031697;28;20102;-77
2022/10/09 09:59:05;;;;;;;29.13;12.40;;;;;;;12.02;100.00;93162.28;5047331;28;20423;-76
2022/10/09 10:01:32;;;;;;;37.50;18.08;;;;;;;12.01;100.00;93163.34;5050175;28;20037;-76
2022/10/09 10:04:01;;;;;;;23.48;12.00;;;;;;;12.00;100.00;93161.78;5044507;28;20502;-76
2022/10/09 10:06:42;;;;;;;93.55;15.75;;;;;;;12.02;100.00;93175.41;5049951;28;20064;-75
2022/10/09 10:09:14;;;;;;;1043.57;40.83;;;;;;;11.95;100.00;93170.47;5049752;28;20120;-77
2022/10/09 10:12:02;;;;;;;1247.70;41.50;;;;;;;11.97;100.00;93167.59;5032433;28;20112;-79
2022/10/09 10:14:28;;;;;;;17.38;8.23;;;;;;;11.83;100.00;93178.72;5046076;28;20036;-77
2022/10/09 10:16:56;;;;;;;86.05;11.02;;;;;;;11.80;100.00;93183.75;5028309;28;20410;-78
2022/10/09 10:19:30;;;;;;;22.73;8.50;;;;;;;11.81;100.00;93186.06;5021600;28;20054;-77
2022/10/09 10:21:55;;;;;;;32.38;15.43;;;;;;;11.89;100.00;93182.09;4993697;28;20030;-77
2022/10/09 10:24:26;;;;;;;63.33;24.75;;;;;;;11.93;100.00;93175.22;5029401;28;20419;-77
2022/10/09 10:26:59;;;;;;;59.92;24.30;;;;;;;11.98;100.00;93166.53;5028804;28;20425;-76
2022/10/09 10:29:35;;;;;;;48.58;19.65;;;;;;;12.02;100.00;93164.91;5030606;28;20073;-77
2022/10/09 10:32:22;;;;;;;48.08;21.58;;;;;;;12.02;100.00;93162.28;5013751;28;20068;-76
2022/10/09 10:34:52;;;;;;;21.23;12.20;;;;;;;12.06;100.00;93160.69;5019961;28;20040;-76
2022/10/09 10:37:30;;;;;;;24.92;10.93;;;;;;;12.07;100.00;93157.00;5023183;28;20167;-77
2022/10/09 10:40:06;;;;;;;23.17;11.73;;;;;;;12.10;100.00;93151.19;5002084;28;20103;-76
2022/10/09 10:42:54;;;;;;;16.00;9.25;;;;;;;12.12;100.00;93146.44;5030366;28;20037;-77
2022/10/09 10:45:27;;;;;;;28.30;16.27;;;;;;;12.15;100.00;93155.59;5024287;28;20037;-76
2022/10/09 10:47:58;;;;;;;28.83;14.43;;;;;;;12.16;100.00;93150.09;5007043;28;20075;-77
2022/10/09 10:50:29;;;;;;;22.05;12.10;;;;;;;12.19;100.00;93149.53;5022746;28;20042;-75
2022/10/09 10:53:10;;;;;;;48.30;27.38;;;;;;;12.22;100.00;93151.56;5019923;28;20445;-77
2022/10/09 10:55:53;;;;;;;33.22;15.23;;;;;;;12.26;100.00;93149.97;4992577;28;20747;-79
2022/10/09 10:58:30;;;;;;;41.78;20.58;;;;;;;12.32;100.00;93144.66;4997083;28;20041;-79
2022/10/09 11:01:27;;;;;;;25.10;10.93;;;;;;;12.33;100.00;93147.00;5023781;28;20171;-77
2022/10/09 11:04:20;;;;;;;18.77;4.95;;;;;;;12.37;100.00;93150.63;5022873;28;20395;-77
2022/10/09 11:07:03;;;;;;;493.48;25.48;;;;;;;12.30;100.00;93150.19;5026310;28;20128;-77
2022/10/09 11:09:54;;;;;;;302.52;23.58;;;;;;;12.33;100.00;93148.84;5007814;28;20029;-78
2022/10/09 11:12:46;;;;;;;178.57;10.63;;;;;;;12.32;100.00;93153.31;5013227;28;20030;-76
2022/10/09 11:15:18;;;;;;;285.55;11.35;;;;;;;12.39;100.00;93155.63;5008183;28;20041;-77
2022/10/09 11:17:56;;;;;;;246.73;49.97;;;;;;;12.18;100.00;93142.72;5025667;28;20125;-76
2022/10/09 11:20:57;;;;;;;31.00;15.15;;;;;;;12.17;100.00;93151.63;5032759;28;20047;-77